Time;durP1;ratioP1;P1;durP2;ratioP2;P2;SDS_P1;SDS_P2;PMS_P1;PMS_P2;Temp;Humidity;BMP_temperature;BMP_pressure;BME280_temperature;BME280_humidity;BME280_pressure;Samples;Min_cycle;Max_cycle;Signal;HPM_P1;HPM_P2
2022/03/09 00:00:08;;;;;;;17.90;10.05;;;3.60;99.00;;;;;;5094755;28;20031;-75
2022/03/09 00:02:34;;;;;;;16.52;9.57;;;3.60;99.00;;;;;;5098606;28;20055;-75
2022/03/09 00:05:00;;;;;;;15.25;10.20;;;3.50;99.10;;;;;;5099459;28;20047;-75
2022/03/09 00:07:27;;;;;;;17.02;9.43;;;3.50;99.10;;;;;;5094209;28;20024;-75
2022/03/09 00:09:52;;;;;;;22.13;10.18;;;3.50;99.40;;;;;;5094565;28;20024;-75
2022/03/09 00:12:21;;;;;;;16.65;10.00;;;3.50;99.30;;;;;;5102316;28;20042;-75
2022/03/09 00:14:46;;;;;;;14.48;10.05;;;3.50;99.20;;;;;;5095039;28;20057;-75
2022/03/09 00:17:12;;;;;;;14.05;9.75;;;3.50;99.30;;;;;;5099263;28;20028;-75
2022/03/09 00:19:38;;;;;;;16.48;9.70;;;3.50;99.30;;;;;;5099941;28;20028;-75
2022/03/09 00:22:04;;;;;;;15.00;9.98;;;3.50;99.40;;;;;;5093459;28;20482;-75
2022/03/09 00:24:30;;;;;;;13.50;9.70;;;3.50;99.20;;;;;;5093847;28;20020;-75
2022/03/09 00:26:55;;;;;;;15.35;9.55;;;3.50;99.10;;;;;;5093982;28;20581;-75
2022/03/09 00:29:21;;;;;;;15.15;8.93;;;3.50;99.20;;;;;;5093089;28;20032;-75
2022/03/09 00:31:46;;;;;;;13.65;9.60;;;3.40;99.50;;;;;;5093963;28;20030;-75
2022/03/09 00:34:12;;;;;;;12.10;9.65;;;3.40;99.50;;;;;;5093362;28;20058;-75
2022/03/09 00:36:38;;;;;;;15.20;10.23;;;3.40;99.40;;;;;;5093087;28;20035;-75
2022/03/09 00:39:04;;;;;;;14.68;9.15;;;3.40;99.60;;;;;;5093866;28;20452;-75
2022/03/09 00:41:29;;;;;;;16.15;10.48;;;3.40;99.70;;;;;;5093260;28;20475;-75
2022/03/09 00:43:55;;;;;;;15.90;9.95;;;3.40;99.90;;;;;;5093022;28;20024;-75
2022/03/09 00:46:21;;;;;;;13.07;8.88;;;3.30;99.90;;;;;;5093511;28;20056;-75
2022/03/09 00:48:46;;;;;;;14.48;10.02;;;3.30;99.90;;;;;;5093462;28;20056;-75
2022/03/09 00:51:12;;;;;;;14.95;10.00;;;3.20;99.90;;;;;;5092601;28;20430;-75
2022/03/09 00:53:38;;;;;;;12.60;9.48;;;3.20;99.90;;;;;;5093522;28;20494;-75
2022/03/09 00:56:04;;;;;;;13.70;10.07;;;3.20;99.90;;;;;;5093551;28;20115;-75
2022/03/09 00:58:29;;;;;;;25.50;10.77;;;3.20;99.90;;;;;;5092564;28;20020;-75
2022/03/09 01:00:55;;;;;;;14.02;9.65;;;3.20;99.90;;;;;;5093551;28;20030;-75
2022/03/09 01:03:20;;;;;;;17.30;9.43;;;3.10;99.90;;;;;;5092960;28;20055;-75
2022/03/09 01:05:46;;;;;;;15.63;9.60;;;3.10;99.90;;;;;;5092595;28;20028;-75
2022/03/09 01:08:12;;;;;;;15.02;10.07;;;3.10;99.90;;;;;;5092920;28;20056;-75
2022/03/09 01:10:37;;;;;;;16.25;10.30;;;3.10;99.90;;;;;;5093082;28;20107;-75
2022/03/09 01:13:09;;;;;;;13.68;9.02;;;3.00;99.90;;;;;;5092626;28;20116;-75
2022/03/09 01:15:37;;;;;;;15.30;10.23;;;3.00;99.90;;;;;;5092993;28;20085;-75
2022/03/09 01:18:03;;;;;;;15.85;10.73;;;3.00;99.90;;;;;;5092406;28;20024;-75
2022/03/09 01:20:28;;;;;;;14.63;9.43;;;3.00;99.90;;;;;;5092797;28;20031;-75
2022/03/09 01:22:54;;;;;;;14.27;9.90;;;2.90;99.90;;;;;;5093439;28;20363;-75
2022/03/09 01:25:20;;;;;;;16.58;9.73;;;2.80;99.90;;;;;;5092065;28;20031;-75
2022/03/09 01:27:45;;;;;;;13.68;10.55;;;2.80;99.90;;;;;;5092829;28;20052;-75
2022/03/09 01:30:11;;;;;;;14.35;8.82;;;2.80;99.90;;;;;;5092706;28;20024;-75
2022/03/09 01:32:36;;;;;;;15.57;9.98;;;2.80;99.90;;;;;;5092252;28;20503;-75
2022/03/09 01:35:04;;;;;;;14.07;9.25;;;2.80;99.90;;;;;;5092728;28;20364;-75
2022/03/09 01:37:30;;;;;;;13.38;9.07;;;2.70;99.90;;;;;;5092256;28;20070;-75
2022/03/09 01:39:56;;;;;;;14.88;9.90;;;2.70;99.90;;;;;;5091787;28;20024;-75
2022/03/09 01:42:21;;;;;;;15.77;9.65;;;2.60;99.90;;;;;;5092700;28;20091;-75
2022/03/09 01:44:47;;;;;;;17.60;9.63;;;2.60;99.90;;;;;;5092559;28;20107;-75
2022/03/09 01:47:13;;;;;;;16.83;10.00;;;2.60;99.90;;;;;;5091684;28;20032;-75
2022/03/09 01:49:39;;;;;;;17.27;10.52;;;2.60;99.90;;;;;;5092600;28;20052;-75
2022/03/09 01:52:05;;;;;;;16.35;10.18;;;2.60;99.90;;;;;;5092334;28;20538;-75
2022/03/09 01:54:31;;;;;;;15.07;9.32;;;2.60;99.90;;;;;;5091010;28;20086;-75
2022/03/09 01:56:58;;;;;;;13.07;8.85;;;2.60;99.90;;;;;;5092475;28;20032;-75
2022/03/09 01:59:24;;;;;;;14.27;9.27;;;2.60;99.90;;;;;;5092285;28;20032;-75
2022/03/09 02:01:50;;;;;;;15.68;10.02;;;2.60;99.90;;;;;;5091958;28;20024;-75
2022/03/09 02:04:17;;;;;;;16.42;9.45;;;2.60;99.90;;;;;;5096854;28;20048;-75
2022/03/09 02:06:44;;;;;;;17.17;9.57;;;2.60;99.90;;;;;;5093201;28;20502;-75
2022/03/09 02:11:55;;;;;;;13.45;9.55;;;2.50;99.90;;;;;;5092240;28;20081;-75
2022/03/09 02:14:42;;;;;;;13.57;8.80;;;2.50;99.90;;;;;;5095487;28;20029;-75
2022/03/09 02:17:14;;;;;;;20.10;10.15;;;2.50;99.90;;;;;;5094215;28;20039;-75
2022/03/09 02:19:42;;;;;;;20.45;9.70;;;2.40;99.90;;;;;;5102906;28;20028;-75
2022/03/09 02:22:19;;;;;;;17.23;8.98;;;2.40;99.90;;;;;;5092816;28;20028;-75
2022/03/09 02:24:45;;;;;;;17.25;9.70;;;2.40;99.90;;;;;;5092420;28;20028;-75
2022/03/09 02:27:11;;;;;;;13.00;8.48;;;2.40;99.90;;;;;;5091980;28;20059;-75
2022/03/09 02:29:37;;;;;;;13.65;9.30;;;2.40;99.90;;;;;;5091385;28;20048;-74
2022/03/09 02:32:04;;;;;;;17.67;10.15;;;2.40;99.90;;;;;;5092191;28;20024;-75
2022/03/09 02:34:32;;;;;;;15.32;9.50;;;2.40;99.90;;;;;;5091481;28;20040;-75
2022/03/09 02:36:58;;;;;;;18.90;9.93;;;2.40;99.90;;;;;;5091292;28;20139;-75
2022/03/09 02:39:24;;;;;;;15.63;8.70;;;2.50;99.90;;;;;;5091580;28;20123;-75
2022/03/09 02:41:52;;;;;;;16.85;9.35;;;2.40;99.90;;;;;;5092071;28;20062;-74
2022/03/09 02:44:17;;;;;;;17.58;9.75;;;2.40;99.90;;;;;;5091081;28;20035;-75
2022/03/09 02:46:43;;;;;;;15.68;9.40;;;2.40;99.90;;;;;;5091992;28;20016;-75
2022/03/09 02:49:09;;;;;;;13.05;8.43;;;2.40;99.90;;;;;;5091688;28;20361;-75
2022/03/09 02:51:34;;;;;;;19.15;8.93;;;2.50;99.90;;;;;;5091282;28;20536;-75
2022/03/09 02:54:00;;;;;;;21.40;9.15;;;2.40;99.90;;;;;;5091720;28;20036;-75
2022/03/09 02:56:32;;;;;;;16.40;10.10;;;2.50;99.90;;;;;;5091024;28;20032;-75
2022/03/09 02:58:58;;;;;;;14.85;8.52;;;2.50;99.90;;;;;;5091670;28;20016;-75
2022/03/09 03:01:24;;;;;;;14.40;8.57;;;2.40;99.90;;;;;;5091691;28;20028;-75
2022/03/09 03:03:49;;;;;;;12.27;8.57;;;2.50;99.90;;;;;;5090940;28;20097;-75
2022/03/09 03:06:15;;;;;;;16.50;8.65;;;2.40;99.90;;;;;;5094585;28;20143;-75
2022/03/09 03:08:41;;;;;;;13.75;8.65;;;2.30;99.90;;;;;;5095651;28;20119;-75
2022/03/09 03:11:10;;;;;;;20.88;9.00;;;2.30;99.90;;;;;;5094718;28;20107;-75
2022/03/09 03:13:38;;;;;;;11.80;8.68;;;2.30;99.90;;;;;;5095112;28;20483;-75
2022/03/09 03:16:04;;;;;;;17.67;9.55;;;2.20;99.90;;;;;;5095571;28;20178;-75
2022/03/09 03:18:29;;;;;;;14.52;9.15;;;2.20;99.90;;;;;;5094488;28;20139;-75
2022/03/09 03:20:55;;;;;;;17.30;9.07;;;2.20;99.90;;;;;;5095476;28;20645;-75
2022/03/09 03:23:25;;;;;;;12.57;8.60;;;2.10;99.90;;;;;;5094997;28;20057;-75
2022/03/09 03:25:52;;;;;;;11.35;7.97;;;2.10;99.90;;;;;;5094373;28;20020;-75
2022/03/09 03:28:18;;;;;;;13.15;9.20;;;2.10;99.90;;;;;;5095063;28;20040;-75
2022/03/09 03:30:44;;;;;;;16.40;8.35;;;2.10;99.90;;;;;;5095511;28;20097;-75
2022/03/09 03:33:11;;;;;;;11.18;8.07;;;2.10;99.90;;;;;;5094303;28;20471;-75
2022/03/09 03:35:37;;;;;;;14.25;9.55;;;2.10;99.90;;;;;;5095189;28;20032;-75
2022/03/09 03:38:02;;;;;;;11.27;8.52;;;2.10;99.90;;;;;;5095149;28;20084;-74
2022/03/09 03:40:28;;;;;;;14.25;8.63;;;2.10;99.90;;;;;;5093829;28;20062;-75
2022/03/09 03:42:54;;;;;;;11.75;7.70;;;2.10;99.90;;;;;;5094745;28;20024;-75
2022/03/09 03:45:19;;;;;;;17.13;9.00;;;2.10;99.90;;;;;;5094772;28;20504;-75
2022/03/09 03:47:45;;;;;;;14.75;9.05;;;2.10;99.90;;;;;;5094386;28;20044;-75
2022/03/09 03:50:10;;;;;;;17.52;8.48;;;2.10;99.90;;;;;;5094829;28;20016;-75
2022/03/09 03:52:36;;;;;;;16.95;8.63;;;2.10;99.90;;;;;;5094650;28;20020;-75
2022/03/09 03:55:02;;;;;;;15.57;8.85;;;2.10;99.90;;;;;;5079432;28;20036;-74
2022/03/09 03:57:28;;;;;;;14.48;8.82;;;2.10;99.90;;;;;;5074053;28;20028;-75
2022/03/09 03:59:53;;;;;;;11.48;7.82;;;2.00;99.90;;;;;;5073617;28;20041;-75
2022/03/09 04:02:19;;;;;;;12.73;8.25;;;2.00;99.90;;;;;;5074213;28;20024;-75
2022/03/09 04:04:44;;;;;;;9.52;7.82;;;1.90;99.90;;;;;;5074134;28;20048;-74
2022/03/09 04:07:11;;;;;;;13.63;7.65;;;1.90;99.90;;;;;;5084291;28;20127;-75
2022/03/09 04:09:36;;;;;;;13.45;8.13;;;1.90;99.90;;;;;;5074334;28;20071;-75
2022/03/09 04:12:02;;;;;;;13.20;7.82;;;1.90;99.90;;;;;;5074087;28;20061;-75
2022/03/09 04:14:28;;;;;;;16.70;8.88;;;1.90;99.90;;;;;;5073743;28;20135;-75
2022/03/09 04:16:53;;;;;;;12.43;8.70;;;1.90;99.90;;;;;;5078449;28;20082;-75
2022/03/09 04:19:19;;;;;;;13.73;9.65;;;1.90;99.90;;;;;;5080513;28;20021;-75
2022/03/09 04:21:44;;;;;;;13.55;7.85;;;1.90;99.90;;;;;;5086569;28;20024;-75
2022/03/09 04:24:10;;;;;;;11.98;8.80;;;1.80;99.90;;;;;;5074486;28;20093;-75
2022/03/09 04:26:35;;;;;;;10.98;7.60;;;1.80;99.90;;;;;;5073810;28;20483;-74
2022/03/09 04:29:01;;;;;;;14.20;7.15;;;1.80;99.90;;;;;;5073212;28;20025;-74
2022/03/09 04:31:27;;;;;;;11.55;7.65;;;1.80;99.90;;;;;;5073493;28;20028;-74
2022/03/09 04:33:52;;;;;;;12.60;7.35;;;1.80;99.90;;;;;;5073526;28;20032;-75
2022/03/09 04:36:18;;;;;;;14.77;8.45;;;1.80;99.90;;;;;;5072590;28;20401;-75
2022/03/09 04:38:44;;;;;;;12.45;7.85;;;1.80;99.90;;;;;;5073570;28;20047;-75
2022/03/09 04:41:10;;;;;;;10.93;7.97;;;1.80;99.90;;;;;;5073152;28;20332;-75
2022/03/09 04:43:36;;;;;;;13.30;8.30;;;1.80;99.90;;;;;;5073015;28;20086;-75
2022/03/09 04:46:01;;;;;;;12.82;8.63;;;1.80;99.90;;;;;;5073574;28;20024;-75
2022/03/09 04:48:27;;;;;;;12.48;8.00;;;1.80;99.90;;;;;;5072989;28;20132;-75
2022/03/09 04:50:53;;;;;;;12.23;7.80;;;1.80;99.90;;;;;;5072746;28;20021;-75
2022/03/09 04:53:18;;;;;;;15.98;7.85;;;1.70;99.90;;;;;;5072853;28;20028;-75
2022/03/09 04:55:44;;;;;;;11.55;8.00;;;1.70;99.90;;;;;;5073121;28;20100;-75
2022/03/09 04:58:09;;;;;;;9.73;7.70;;;1.70;99.90;;;;;;5072327;28;20465;-75
2022/03/09 05:00:35;;;;;;;15.23;8.15;;;1.70;99.90;;;;;;5073453;28;20361;-75
2022/03/09 05:03:00;;;;;;;12.88;8.32;;;1.70;99.90;;;;;;5072328;28;20035;-75
2022/03/09 05:05:26;;;;;;;12.30;8.63;;;1.70;99.90;;;;;;5072473;28;21024;-76
2022/03/09 05:07:51;;;;;;;15.13;7.97;;;1.60;99.90;;;;;;5072691;28;20066;-75
2022/03/09 05:10:20;;;;;;;11.82;7.68;;;1.60;99.90;;;;;;5071914;28;20107;-75
2022/03/09 05:12:45;;;;;;;15.75;7.40;;;1.60;99.90;;;;;;5072659;28;20024;-75
2022/03/09 05:15:11;;;;;;;10.30;7.30;;;1.50;99.90;;;;;;5072483;28;20538;-75
2022/03/09 05:17:41;;;;;;;14.35;8.45;;;1.60;99.90;;;;;;5072101;28;20021;-75
2022/03/09 05:20:07;;;;;;;15.02;8.02;;;1.60;99.90;;;;;;5072481;28;20021;-75
2022/03/09 05:22:33;;;;;;;12.55;8.15;;;1.50;99.90;;;;;;5072766;28;20440;-75
2022/03/09 05:24:58;;;;;;;14.20;8.68;;;1.60;99.90;;;;;;5071697;28;20060;-75
2022/03/09 05:27:30;;;;;;;12.18;7.80;;;1.50;99.90;;;;;;5071907;28;20056;-75
2022/03/09 05:29:55;;;;;;;11.15;7.60;;;1.40;99.90;;;;;;5071749;28;20036;-75
2022/03/09 05:32:21;;;;;;;13.98;8.02;;;1.40;99.90;;;;;;5071437;28;20028;-75
2022/03/09 05:34:49;;;;;;;14.32;7.68;;;1.50;99.90;;;;;;5072240;28;20040;-75
2022/03/09 05:37:15;;;;;;;13.20;8.32;;;1.40;99.90;;;;;;5072029;28;20033;-76
2022/03/09 05:39:41;;;;;;;10.45;7.60;;;1.40;99.90;;;;;;5071996;28;20025;-75
2022/03/09 05:42:06;;;;;;;14.48;8.18;;;1.50;99.90;;;;;;5072408;28;20401;-76
2022/03/09 05:44:32;;;;;;;9.80;6.85;;;1.40;99.90;;;;;;5072314;28;20029;-75
2022/03/09 05:46:58;;;;;;;10.15;7.78;;;1.40;99.90;;;;;;5071408;28;20107;-75
2022/03/09 05:49:24;;;;;;;16.08;8.40;;;1.40;99.90;;;;;;5072045;28;20025;-75
2022/03/09 05:51:52;;;;;;;16.13;8.70;;;1.40;99.90;;;;;;5071980;28;20391;-76
2022/03/09 05:54:18;;;;;;;17.73;10.00;;;1.40;99.90;;;;;;5071281;28;20043;-75
2022/03/09 05:56:44;;;;;;;20.85;8.43;;;1.30;99.90;;;;;;5072225;28;20412;-75
2022/03/09 05:59:09;;;;;;;12.40;8.45;;;1.30;99.90;;;;;;5071609;28;20027;-75
2022/03/09 06:01:35;;;;;;;17.67;7.30;;;1.30;99.90;;;;;;5071359;28;20365;-75
2022/03/09 06:04:03;;;;;;;17.67;9.38;;;1.20;99.90;;;;;;5071784;28;20514;-76
2022/03/09 06:06:29;;;;;;;15.93;8.68;;;1.30;99.90;;;;;;5074754;28;20024;-76
2022/03/09 06:08:55;;;;;;;16.75;9.02;;;1.20;99.90;;;;;;5074370;28;20103;-78
2022/03/09 06:11:20;;;;;;;13.45;8.07;;;1.20;99.90;;;;;;5071765;28;20119;-76
2022/03/09 06:13:46;;;;;;;13.93;8.23;;;1.20;99.90;;;;;;5071357;28;20039;-76
2022/03/09 06:16:11;;;;;;;12.45;8.27;;;1.30;99.90;;;;;;5072409;28;20021;-76
2022/03/09 06:18:37;;;;;;;10.70;7.50;;;1.20;99.90;;;;;;5077497;28;20583;-76
2022/03/09 06:21:03;;;;;;;11.40;7.85;;;1.20;99.90;;;;;;5086546;28;20073;-76
2022/03/09 06:23:29;;;;;;;15.35;8.38;;;1.20;99.90;;;;;;5099900;28;20043;-76
2022/03/09 06:25:55;;;;;;;14.77;7.90;;;1.20;99.90;;;;;;5088567;28;20105;-76
2022/03/09 06:28:20;;;;;;;25.27;9.10;;;1.20;99.90;;;;;;5089921;28;20385;-76
2022/03/09 06:30:46;;;;;;;16.15;9.82;;;1.20;99.90;;;;;;5090696;28;20416;-76
2022/03/09 06:33:12;;;;;;;17.73;9.38;;;1.30;99.90;;;;;;5089277;28;20016;-76
2022/03/09 06:35:37;;;;;;;15.95;9.60;;;1.30;99.90;;;;;;5089846;28;20047;-75
2022/03/09 06:38:03;;;;;;;17.05;9.32;;;1.30;99.90;;;;;;5089960;28;20491;-76
2022/03/09 06:40:29;;;;;;;11.50;8.20;;;1.40;99.90;;;;;;5092592;28;20132;-76
2022/03/09 06:42:54;;;;;;;13.15;8.52;;;1.40;99.90;;;;;;5094347;28;20486;-76
2022/03/09 06:45:20;;;;;;;12.73;8.85;;;1.40;99.90;;;;;;5094683;28;20024;-76
2022/03/09 06:47:46;;;;;;;17.60;8.07;;;1.40;99.90;;;;;;5087766;28;20099;-76
2022/03/09 06:50:11;;;;;;;11.15;7.43;;;1.50;99.90;;;;;;5076437;28;20103;-76
2022/03/09 06:52:38;;;;;;;12.55;7.80;;;1.50;99.90;;;;;;5074862;28;20033;-76
2022/03/09 06:55:07;;;;;;;14.05;9.23;;;1.60;99.90;;;;;;5077150;28;20037;-75
2022/03/09 06:57:33;;;;;;;15.98;8.82;;;1.60;99.90;;;;;;5073784;28;20021;-76
2022/03/09 06:59:59;;;;;;;15.23;9.10;;;1.70;99.90;;;;;;5077085;28;20035;-77
2022/03/09 07:02:25;;;;;;;13.18;8.27;;;1.70;99.90;;;;;;5073886;28;20063;-77
2022/03/09 07:04:51;;;;;;;19.90;9.27;;;1.80;99.90;;;;;;5073335;28;20057;-76
2022/03/09 07:07:20;;;;;;;14.82;9.52;;;1.90;99.90;;;;;;5073896;28;20017;-76
2022/03/09 07:09:45;;;;;;;15.13;8.65;;;1.90;99.90;;;;;;5073712;28;20043;-77
2022/03/09 07:12:11;;;;;;;17.20;9.18;;;2.00;99.90;;;;;;5076755;28;20491;-76
2022/03/09 07:14:36;;;;;;;13.40;8.68;;;2.00;99.90;;;;;;5074367;28;20020;-76
2022/03/09 07:17:02;;;;;;;14.95;9.27;;;2.10;99.90;;;;;;5076595;28;20062;-76
2022/03/09 07:19:27;;;;;;;16.98;8.70;;;2.10;99.90;;;;;;5076027;28;20392;-76
2022/03/09 07:21:56;;;;;;;14.30;9.05;;;2.20;99.90;;;;;;5074017;28;20502;-81
2022/03/09 07:24:21;;;;;;;15.23;8.23;;;2.20;99.90;;;;;;5071385;28;20028;-80
2022/03/09 07:26:47;;;;;;;14.60;8.48;;;2.30;99.90;;;;;;5072642;28;20082;-80
2022/03/09 07:29:12;;;;;;;15.63;9.23;;;2.30;99.90;;;;;;5072778;28;20013;-82
2022/03/09 07:31:39;;;;;;;17.63;9.00;;;2.40;99.90;;;;;;5091946;28;20016;-79
2022/03/09 07:34:04;;;;;;;14.07;9.70;;;2.50;99.90;;;;;;5093747;28;20063;-79
2022/03/09 07:36:30;;;;;;;12.60;8.32;;;2.50;99.90;;;;;;5094405;28;20494;-79
2022/03/09 07:38:56;;;;;;;14.40;8.88;;;2.60;99.90;;;;;;5094506;28;20043;-81
2022/03/09 07:41:21;;;;;;;12.02;8.20;;;2.60;99.90;;;;;;5093617;28;20024;-78
2022/03/09 07:43:47;;;;;;;17.92;8.82;;;2.70;99.90;;;;;;5095102;28;20035;-78
2022/03/09 07:46:13;;;;;;;14.05;9.32;;;2.70;99.90;;;;;;5094137;28;20431;-77
2022/03/09 07:48:39;;;;;;;15.48;9.20;;;2.80;99.90;;;;;;5097188;28;20111;-80
2022/03/09 07:51:04;;;;;;;22.42;10.52;;;2.90;99.90;;;;;;5101169;28;20017;-80
2022/03/09 07:53:30;;;;;;;13.20;9.50;;;3.00;99.90;;;;;;5073755;28;20036;-80
2022/03/09 07:55:56;;;;;;;23.00;9.90;;;3.00;99.90;;;;;;5074538;28;20115;-80
2022/03/09 07:58:21;;;;;;;15.95;9.20;;;3.10;99.90;;;;;;5074470;28;20434;-80
2022/03/09 08:00:47;;;;;;;20.17;9.23;;;3.10;99.90;;;;;;5074168;28;20115;-82
2022/03/09 08:03:12;;;;;;;14.45;9.38;;;3.20;99.90;;;;;;5089227;28;20016;-79
2022/03/09 08:05:38;;;;;;;13.60;9.07;;;3.30;99.90;;;;;;5094922;28;20158;-78
2022/03/09 08:08:03;;;;;;;18.13;8.77;;;3.30;99.90;;;;;;5093181;28;20047;-75
2022/03/09 08:10:32;;;;;;;17.05;9.75;;;3.40;99.90;;;;;;5094824;28;20021;-76
2022/03/09 08:12:57;;;;;;;20.60;9.73;;;3.40;99.90;;;;;;5095119;28;20105;-79
2022/03/09 08:15:23;;;;;;;17.77;9.15;;;3.50;99.90;;;;;;5095045;28;20462;-79
2022/03/09 08:17:48;;;;;;;16.70;9.32;;;3.60;99.90;;;;;;5094669;28;20551;-80
2022/03/09 08:20:14;;;;;;;17.52;9.98;;;3.70;99.90;;;;;;5097348;28;20052;-81
2022/03/09 08:22:41;;;;;;;15.35;9.45;;;3.70;99.90;;;;;;5095480;28;20031;-81
2022/03/09 08:25:07;;;;;;;15.88;9.48;;;3.80;99.90;;;;;;5094857;28;20029;-82
2022/03/09 08:27:33;;;;;;;20.20;9.07;;;3.90;99.90;;;;;;5074007;28;20374;-81
2022/03/09 08:29:58;;;;;;;20.65;9.63;;;4.00;99.90;;;;;;5077165;28;20024;-81
2022/03/09 08:32:24;;;;;;;19.60;9.63;;;4.10;99.90;;;;;;5074719;28;20070;-81
2022/03/09 08:34:54;;;;;;;15.77;8.68;;;4.20;99.90;;;;;;5076412;28;20086;-82
2022/03/09 08:37:19;;;;;;;14.77;8.67;;;4.30;99.90;;;;;;5079217;28;20434;-81
2022/03/09 08:39:48;;;;;;;12.98;8.95;;;4.40;99.90;;;;;;5090453;28;20028;-81
2022/03/09 08:42:14;;;;;;;11.77;9.13;;;4.50;99.90;;;;;;5083225;28;20644;-82
2022/03/09 08:44:40;;;;;;;15.95;9.02;;;4.60;99.90;;;;;;5076206;28;20156;-81
2022/03/09 08:47:06;;;;;;;14.52;9.02;;;4.70;99.90;;;;;;5080126;28;20024;-82
2022/03/09 08:49:33;;;;;;;16.52;9.40;;;4.80;99.90;;;;;;5074192;28;20098;-82
2022/03/09 08:51:59;;;;;;;29.20;9.90;;;4.90;99.90;;;;;;5074580;28;20089;-82
2022/03/09 08:54:27;;;;;;;17.27;9.10;;;5.00;99.90;;;;;;5075651;28;20477;-81
2022/03/09 08:56:53;;;;;;;15.27;9.88;;;5.10;99.90;;;;;;5079095;28;20020;-81
2022/03/09 08:59:18;;;;;;;16.73;9.85;;;5.20;99.40;;;;;;5079229;28;20032;-80
2022/03/09 09:01:44;;;;;;;18.23;9.65;;;5.40;98.60;;;;;;5084178;28;20467;-80
2022/03/09 09:04:14;;;;;;;11.55;9.38;;;5.50;98.30;;;;;;5093002;28;20040;-85
2022/03/09 09:06:39;;;;;;;17.40;9.32;;;5.50;98.10;;;;;;5094269;28;20028;-85
2022/03/09 09:09:05;;;;;;;14.73;10.05;;;5.60;98.00;;;;;;5093970;28;20035;-85
2022/03/09 09:11:30;;;;;;;17.23;9.68;;;5.70;97.70;;;;;;5093154;28;20382;-84
2022/03/09 09:13:56;;;;;;;13.98;9.75;;;6.00;98.10;;;;;;5094181;28;20536;-84
2022/03/09 09:16:21;;;;;;;16.05;9.65;;;5.70;98.10;;;;;;5094298;28;20036;-84
2022/03/09 09:18:47;;;;;;;16.80;10.43;;;5.80;97.70;;;;;;5095419;28;20024;-85
2022/03/09 09:21:13;;;;;;;15.63;10.38;;;5.90;97.80;;;;;;5092887;28;20024;-84
2022/03/09 09:23:39;;;;;;;15.95;9.75;;;6.00;97.90;;;;;;5093440;28;20024;-85
2022/03/09 09:26:05;;;;;;;20.38;10.82;;;6.10;97.30;;;;;;5095078;28;20020;-85
2022/03/09 09:28:32;;;;;;;18.10;10.48;;;6.20;96.90;;;;;;5094811;28;20028;-85
2022/03/09 09:30:57;;;;;;;18.17;11.35;;;6.30;97.00;;;;;;5094075;28;20017;-85
2022/03/09 09:33:23;;;;;;;21.23;11.45;;;6.40;97.10;;;;;;5094646;28;20085;-83
2022/03/09 09:35:48;;;;;;;22.90;10.40;;;6.50;96.90;;;;;;5095528;28;20506;-84
2022/03/09 09:38:14;;;;;;;23.15;12.35;;;6.50;97.00;;;;;;5115253;28;20032;-81
2022/03/09 09:40:43;;;;;;;16.88;11.15;;;6.60;97.20;;;;;;5094536;28;20028;-83
2022/03/09 09:43:13;;;;;;;22.13;10.50;;;6.70;97.00;;;;;;5092956;28;20103;-83
2022/03/09 09:45:40;;;;;;;22.77;11.45;;;6.70;97.20;;;;;;5075429;28;20029;-82
2022/03/09 09:48:07;;;;;;;19.30;12.00;;;6.90;96.80;;;;;;5074138;28;20035;-85
2022/03/09 09:50:33;;;;;;;19.80;11.40;;;7.00;96.90;;;;;;5073270;28;20034;-83
2022/03/09 09:53:03;;;;;;;23.13;11.75;;;7.10;97.10;;;;;;5083416;28;20028;-81
2022/03/09 09:55:29;;;;;;;19.48;11.70;;;7.20;97.40;;;;;;5092022;28;20051;-73
2022/03/09 09:57:55;;;;;;;22.35;12.55;;;7.30;97.00;;;;;;5092326;28;20032;-72
2022/03/09 10:00:20;;;;;;;25.20;13.07;;;7.40;97.10;;;;;;5092591;28;20035;-84
2022/03/09 10:02:47;;;;;;;15.30;10.88;;;7.50;96.90;;;;;;5093897;28;20403;-85
2022/03/09 10:05:15;;;;;;;21.25;12.38;;;7.60;96.60;;;;;;5093153;28;20052;-85
2022/03/09 10:08:03;;;;;;;28.90;13.60;;;7.70;96.60;;;;;;5093944;28;20036;-85
2022/03/09 10:10:29;;;;;;;25.05;14.05;;;7.80;96.20;;;;;;5096357;28;20484;-85
2022/03/09 10:13:16;;;;;;;24.20;13.57;;;7.80;95.80;;;;;;5109213;28;20028;-85
2022/03/09 10:15:46;;;;;;;26.85;14.63;;;8.00;95.60;;;;;;5093811;28;20032;-86
2022/03/09 10:18:13;;;;;;;25.25;13.25;;;8.00;95.40;;;;;;5095318;28;20028;-84
2022/03/09 10:20:39;;;;;;;26.02;13.68;;;8.20;95.30;;;;;;5102013;28;20054;-85
2022/03/09 10:23:04;;;;;;;23.75;12.35;;;8.20;95.50;;;;;;5102819;28;20043;-85
2022/03/09 10:25:30;;;;;;;22.17;12.73;;;8.70;95.70;;;;;;5106922;28;20034;-85
2022/03/09 10:27:57;;;;;;;26.38;12.88;;;8.30;95.40;;;;;;5098370;28;20031;-84
2022/03/09 10:30:34;;;;;;;29.27;15.20;;;8.40;95.30;;;;;;5093560;28;20099;-84
2022/03/09 10:33:02;;;;;;;28.17;13.43;;;8.50;95.00;;;;;;5093008;28;20047;-84
2022/03/09 10:35:33;;;;;;;28.65;13.52;;;8.60;94.70;;;;;;5092213;28;20042;-84
2022/03/09 10:38:06;;;;;;;31.65;14.32;;;8.60;94.50;;;;;;5093357;28;20095;-84
2022/03/09 10:40:40;;;;;;;22.10;12.68;;;8.70;94.60;;;;;;5093249;28;20047;-84
2022/03/09 10:43:21;;;;;;;21.52;13.85;;;8.70;95.50;;;;;;5093243;28;20016;-80
2022/03/09 10:46:04;;;;;;;27.45;13.88;;;8.80;95.10;;;;;;5092257;28;20130;-81
2022/03/09 10:48:53;;;;;;;23.58;13.38;;;8.80;95.30;;;;;;5086209;28;20039;-81
2022/03/09 10:51:29;;;;;;;27.05;14.52;;;8.80;94.80;;;;;;5087788;28;20024;-80
2022/03/09 10:53:56;;;;;;;25.38;13.10;;;8.90;94.90;;;;;;5093875;28;20115;-82
2022/03/09 10:56:22;;;;;;;25.85;14.13;;;8.90;94.70;;;;;;5091563;28;20060;-81
2022/03/09 10:58:48;;;;;;;21.98;13.40;;;9.10;94.60;;;;;;5081715;28;20067;-81
2022/03/09 11:01:18;;;;;;;27.15;14.88;;;9.10;94.60;;;;;;5071946;28;20127;-81
2022/03/09 11:03:45;;;;;;;27.98;13.93;;;9.20;94.20;;;;;;5082120;28;20044;-81
2022/03/09 11:06:14;;;;;;;23.30;13.40;;;9.30;94.40;;;;;;5096718;28;20162;-81
2022/03/09 11:08:41;;;;;;;33.03;14.18;;;9.30;94.70;;;;;;5093291;28;20039;-81
2022/03/09 11:11:08;;;;;;;28.15;15.05;;;9.40;93.60;;;;;;5092506;28;20028;-81
2022/03/09 11:13:38;;;;;;;22.98;12.98;;;9.50;93.40;;;;;;5086088;28;20035;-82
2022/03/09 11:16:05;;;;;;;24.52;14.13;;;9.70;93.80;;;;;;5073788;28;20269;-82
2022/03/09 11:18:32;;;;;;;29.40;14.77;;;9.70;93.70;;;;;;5088178;28;20097;-82
2022/03/09 11:21:03;;;;;;;28.23;15.30;;;9.80;93.10;;;;;;5092184;28;20028;-81
2022/03/09 11:23:31;;;;;;;27.15;15.15;;;9.90;93.50;;;;;;5092218;28;20115;-82
2022/03/09 11:25:57;;;;;;;31.60;15.73;;;10.10;92.30;;;;;;5111229;28;20139;-79
2022/03/09 11:28:29;;;;;;;32.97;16.20;;;10.10;92.50;;;;;;5075890;28;20093;-81
2022/03/09 11:31:04;;;;;;;28.30;15.93;;;10.20;91.80;;;;;;5075653;28;20032;-79
2022/03/09 11:33:48;;;;;;;28.50;15.60;;;10.30;92.30;;;;;;5092359;28;20502;-80
2022/03/09 11:36:27;;;;;;;33.22;17.13;;;10.30;91.90;;;;;;5096659;28;20035;-80
2022/03/09 11:38:54;;;;;;;25.58;15.68;;;10.40;92.20;;;;;;5096581;28;20024;-81
2022/03/09 11:41:20;;;;;;;30.20;16.20;;;10.40;92.20;;;;;;5098121;28;20036;-80
2022/03/09 11:43:46;;;;;;;30.05;16.00;;;10.50;91.30;;;;;;5092596;28;20025;-79
2022/03/09 11:46:12;;;;;;;27.27;15.55;;;10.50;91.50;;;;;;5096601;28;20020;-80
2022/03/09 11:48:51;;;;;;;29.02;17.15;;;10.60;90.90;;;;;;5095941;28;20035;-80
2022/03/09 11:51:22;;;;;;;27.15;16.00;;;10.80;90.50;;;;;;5099728;28;20502;-80
2022/03/09 11:53:53;;;;;;;30.92;15.73;;;10.80;90.30;;;;;;5100474;28;20032;-80
2022/03/09 11:56:40;;;;;;;32.83;17.33;;;10.90;89.90;;;;;;5100145;28;20089;-80
2022/03/09 11:59:11;;;;;;;31.52;17.48;;;11.00;89.60;;;;;;5099855;28;20059;-80
2022/03/09 12:02:07;;;;;;;28.60;16.67;;;11.10;89.90;;;;;;5097723;28;20484;-79
2022/03/09 12:04:50;;;;;;;33.35;17.10;;;11.10;88.50;;;;;;5060569;28;20496;-80
2022/03/09 12:07:37;;;;;;;29.33;18.20;;;11.30;88.30;;;;;;5095675;28;20449;-80
2022/03/09 12:10:08;;;;;;;33.30;17.15;;;11.40;86.90;;;;;;5079238;28;20085;-80
2022/03/09 12:12:35;;;;;;;33.88;18.20;;;11.40;86.20;;;;;;5096368;28;20073;-80
2022/03/09 12:15:07;;;;;;;28.10;17.02;;;11.50;86.00;;;;;;5108714;28;20382;-81
2022/03/09 12:17:37;;;;;;;33.70;17.35;;;11.70;86.10;;;;;;5097191;28;20027;-81
2022/03/09 12:20:28;;;;;;;33.85;18.63;;;11.70;85.60;;;;;;5095963;28;20027;-80
2022/03/09 12:22:56;;;;;;;30.85;17.35;;;11.80;85.80;;;;;;5096421;28;20051;-76
2022/03/09 12:25:42;;;;;;;35.63;17.92;;;11.90;83.80;;;;;;5108605;28;20020;-82
2022/03/09 12:28:27;;;;;;;37.97;19.60;;;11.90;85.00;;;;;;5104064;28;20019;-83
2022/03/09 12:31:07;;;;;;;33.80;18.80;;;12.00;84.40;;;;;;5109651;28;20032;-83
2022/03/09 12:33:37;;;;;;;37.13;18.95;;;12.10;84.50;;;;;;5097417;28;20039;-79
2022/03/09 12:36:15;;;;;;;31.48;18.20;;;12.10;85.60;;;;;;5082086;28;20028;-83
2022/03/09 12:38:55;;;;;;;31.90;18.33;;;12.10;84.70;;;;;;5074575;28;20028;-84
2022/03/09 12:41:27;;;;;;;34.03;18.27;;;12.30;84.80;;;;;;5077476;28;20024;-83
2022/03/09 12:43:58;;;;;;;38.83;19.83;;;12.30;84.00;;;;;;5077293;28;20036;-83
2022/03/09 12:46:27;;;;;;;40.92;20.65;;;12.40;84.00;;;;;;5079768;28;20017;-83